Paganini — V2CL8 — position and weather

sailwx.info

Track history (hours):
 
Tides and Currents Weather Stations Pressure Air Temp Water Temp Dewpoint Dewpoint Depression Visibility Wind Speed Wind Dir Waves Ship Positions

Paganini

Last reported at 2014-Jul-28 07:33 UTC. Time now 2014-Jul-28 08:17 UTC.
Position N 41°02' E 002°32'.

Length 90 m; draft 5.6 m.

Type: Ship. MMSI: 305040000.

Date/timePositionNaut miles runAvg speedWind from/ knotsBaromVisibWave heightAir tempDewpointWater temp
2014-Jul-28 07:33N 41°02' E 002°32'8 8.4
2014-Jul-28 06:33N 40°55' E 002°26'9 8.5
2014-Jul-28 05:33N 40°48' E 002°20'9 8.8
2014-Jul-28 04:33N 40°41' E 002°14'9 8.7
2014-Jul-28 03:33N 40°33' E 002°07'9 8.6
2014-Jul-28 02:33N 40°26' E 002°01'9 8.7
2014-Jul-28 01:33N 40°19' E 001°54'9 8.9
2014-Jul-28 00:33N 40°12' E 001°48'9 9.0
2014-Jul-27 23:33N 40°04' E 001°41'9 9.2
2014-Jul-27 22:33N 39°57' E 001°34'9 9.0
2014-Jul-27 21:33N 39°49' E 001°27'9 8.9
2014-Jul-27 20:33N 39°42' E 001°21'21 8.7
2014-Jul-27 18:10N 39°25' E 001°06'5 8.6
2014-Jul-27 17:32N 39°20' E 001°02'9 8.7
2014-Jul-27 16:27N 39°13' E 000°55'103 8.6
2014-Jul-27 04:33N 37°47' W 000°19'9 8.4
2014-Jul-27 03:32N 37°40' W 000°25'259 8.3
2014-Jul-25 20:32N 35°54' W 005°19'0 0.0
2014-Jul-25 19:32N 35°54' W 005°19'0 0.0
2014-Jul-25 18:32N 35°54' W 005°19'0 0.0
2014-Jul-25 17:33N 35°54' W 005°19'2 1.8
2014-Jul-25 16:33N 35°55' W 005°20'1110.7
2014-Jul-25 15:33N 35°55' W 005°33'3310.4
2014-Jul-25 12:22N 35°54' W 006°14'17 9.3
2014-Jul-25 10:33N 35°58' W 006°34'102 8.4
2014-Jul-24 22:32N 36°26' W 008°35'8 8.7
2014-Jul-24 21:33N 36°28' W 008°45'10 8.9
2014-Jul-24 20:27N 36°31' W 008°57'9 8.9
2014-Jul-24 19:29N 36°33' W 009°07'8 8.7
2014-Jul-24 18:33N 36°35' W 009°17'11 9.3
2014-Jul-24 17:20N 36°44' W 009°27'7 9.1
2014-Jul-24 16:31N 36°50' W 009°32'12 9.2
2014-Jul-24 15:10N 37°02' W 009°36'25 9.1
2014-Jul-24 12:25N 37°26' W 009°43'9 9.5
2014-Jul-24 11:30N 37°34' W 009°46'9 9.2
2014-Jul-24 10:33N 37°43' W 009°49'10 9.1
2014-Jul-24 09:28N 37°52' W 009°51'8 8.9
2014-Jul-24 08:32N 38°00' W 009°54'9 9.0
2014-Jul-24 07:33N 38°09' W 009°56'9 8.9
2014-Jul-24 06:29N 38°18' W 009°60'9 9.0
2014-Jul-24 05:32N 38°27' W 010°02'9 8.8
2014-Jul-24 04:33N 38°35' W 010°05'9 8.7
2014-Jul-24 03:32N 38°44' W 010°07'10 9.1
2014-Jul-24 02:29N 38°53' W 010°07'10 9.0
2014-Jul-24 01:19N 39°04' W 010°07'16 9.0
2014-Jul-23 23:33N 39°20' W 010°07'  
2014-Jul-21 06:33N 48°01' W 006°30'239 8.1
2014-Jul-20 01:13N 50°16' W 001°29'4 5.9
2014-Jul-20 00:33N 50°17' W 001°23'7 6.9
2014-Jul-19 23:32N 50°19' W 001°12'9 8.8
2014-Jul-19 22:30N 50°21' W 000°59'4010.1
2014-Jul-19 18:31N 50°32' E 000°02'10 9.1
2014-Jul-19 17:28N 50°35' E 000°17'8 8.4
2014-Jul-19 16:33N 50°37' E 000°28'8 7.8
2014-Jul-19 15:33N 50°41' E 000°39'8 7.7
2014-Jul-19 14:33N 50°45' E 000°49'8 8.3
2014-Jul-19 13:32N 50°50' E 000°60'11 9.5
2014-Jul-19 12:26N 50°57' E 001°13'1010.9
2014-Jul-19 11:33N 51°03' E 001°25'1110.8
2014-Jul-19 10:33N 51°10' E 001°37'9 9.0
2014-Jul-19 09:33N 51°16' E 001°47'8 8.1
2014-Jul-19 08:33N 51°24' E 001°53'7 7.1
2014-Jul-19 07:34N 51°30' E 001°59'7 7.1
2014-Jul-19 06:34N 51°35' E 002°06'7 7.4
2014-Jul-19 05:33N 51°40' E 002°15'9 7.6
2014-Jul-19 04:25N 51°47' E 002°24'7 8.4
2014-Jul-19 03:33N 51°52' E 002°32'10 9.6
2014-Jul-19 02:33N 51°58' E 002°44'9 9.4
2014-Jul-19 01:33N 52°02' E 002°59'10 9.6
2014-Jul-19 00:33N 52°03' E 003°14'9 9.0
2014-Jul-18 23:32N 52°03' E 003°29'8 8.5
2014-Jul-18 22:32N 52°04' E 003°43'8 8.3
2014-Jul-18 21:34N 52°03' E 003°56'1010.0
2014-Jul-18 20:33N 51°57' E 004°10'10 9.5
2014-Jul-18 19:33N 51°54' E 004°24'1 0.7
2014-Jul-18 18:32N 51°54' E 004°25'0 0.0
2014-Jul-18 17:32N 51°54' E 004°25'0 0.0
2014-Jul-18 16:32N 51°54' E 004°25'0 0.0
2014-Jul-18 15:32N 51°54' E 004°25'0 0.0
2014-Jul-18 14:32N 51°54' E 004°25'0 0.0
2014-Jul-18 13:32N 51°54' E 004°25'0 0.0
2014-Jul-18 12:32N 51°54' E 004°25'0 0.0
2014-Jul-18 11:32N 51°54' E 004°25'0 0.0
2014-Jul-18 10:32N 51°54' E 004°25'0 0.0
2014-Jul-18 09:32N 51°54' E 004°25'0 0.0
2014-Jul-18 08:32N 51°54' E 004°25'  
Track history (hours):
 
Tides and Currents Weather Stations Pressure Air Temp Water Temp Dewpoint Dewpoint Depression Visibility Wind Speed Wind Dir Waves Ship Positions

Paganini

Last reported at 2014-Jul-28 07:33 UTC. Time now 2014-Jul-28 08:17 UTC.
Position N 41°02' E 002°32'.

Length 90 m; draft 5.6 m.

Type: Ship. MMSI: 305040000.

Date/timePositionNaut miles runAvg speedWind from/ knotsBaromVisibWave heightAir tempDewpointWater temp
2014-Jul-28 07:33N 41°02' E 002°32'8 8.4
2014-Jul-28 06:33N 40°55' E 002°26'9 8.5
2014-Jul-28 05:33N 40°48' E 002°20'9 8.8
2014-Jul-28 04:33N 40°41' E 002°14'9 8.7
2014-Jul-28 03:33N 40°33' E 002°07'9 8.6
2014-Jul-28 02:33N 40°26' E 002°01'9 8.7
2014-Jul-28 01:33N 40°19' E 001°54'9 8.9
2014-Jul-28 00:33N 40°12' E 001°48'9 9.0
2014-Jul-27 23:33N 40°04' E 001°41'9 9.2
2014-Jul-27 22:33N 39°57' E 001°34'9 9.0
2014-Jul-27 21:33N 39°49' E 001°27'9 8.9
2014-Jul-27 20:33N 39°42' E 001°21'21 8.7
2014-Jul-27 18:10N 39°25' E 001°06'5 8.6
2014-Jul-27 17:32N 39°20' E 001°02'9 8.7
2014-Jul-27 16:27N 39°13' E 000°55'103 8.6
2014-Jul-27 04:33N 37°47' W 000°19'9 8.4
2014-Jul-27 03:32N 37°40' W 000°25'259 8.3
2014-Jul-25 20:32N 35°54' W 005°19'0 0.0
2014-Jul-25 19:32N 35°54' W 005°19'0 0.0
2014-Jul-25 18:32N 35°54' W 005°19'0 0.0
2014-Jul-25 17:33N 35°54' W 005°19'2 1.8
2014-Jul-25 16:33N 35°55' W 005°20'1110.7
2014-Jul-25 15:33N 35°55' W 005°33'3310.4
2014-Jul-25 12:22N 35°54' W 006°14'17 9.3
2014-Jul-25 10:33N 35°58' W 006°34'102 8.4
2014-Jul-24 22:32N 36°26' W 008°35'8 8.7
2014-Jul-24 21:33N 36°28' W 008°45'10 8.9
2014-Jul-24 20:27N 36°31' W 008°57'9 8.9
2014-Jul-24 19:29N 36°33' W 009°07'8 8.7
2014-Jul-24 18:33N 36°35' W 009°17'11 9.3
2014-Jul-24 17:20N 36°44' W 009°27'7 9.1
2014-Jul-24 16:31N 36°50' W 009°32'12 9.2
2014-Jul-24 15:10N 37°02' W 009°36'25 9.1
2014-Jul-24 12:25N 37°26' W 009°43'9 9.5
2014-Jul-24 11:30N 37°34' W 009°46'9 9.2
2014-Jul-24 10:33N 37°43' W 009°49'10 9.1
2014-Jul-24 09:28N 37°52' W 009°51'8 8.9
2014-Jul-24 08:32N 38°00' W 009°54'9 9.0
2014-Jul-24 07:33N 38°09' W 009°56'9 8.9
2014-Jul-24 06:29N 38°18' W 009°60'9 9.0
2014-Jul-24 05:32N 38°27' W 010°02'9 8.8
2014-Jul-24 04:33N 38°35' W 010°05'9 8.7
2014-Jul-24 03:32N 38°44' W 010°07'10 9.1
2014-Jul-24 02:29N 38°53' W 010°07'10 9.0
2014-Jul-24 01:19N 39°04' W 010°07'16 9.0
2014-Jul-23 23:33N 39°20' W 010°07'  
2014-Jul-21 06:33N 48°01' W 006°30'239 8.1
2014-Jul-20 01:13N 50°16' W 001°29'4 5.9
2014-Jul-20 00:33N 50°17' W 001°23'7 6.9
2014-Jul-19 23:32N 50°19' W 001°12'9 8.8
2014-Jul-19 22:30N 50°21' W 000°59'4010.1
2014-Jul-19 18:31N 50°32' E 000°02'10 9.1
2014-Jul-19 17:28N 50°35' E 000°17'8 8.4
2014-Jul-19 16:33N 50°37' E 000°28'8 7.8
2014-Jul-19 15:33N 50°41' E 000°39'8 7.7
2014-Jul-19 14:33N 50°45' E 000°49'8 8.3
2014-Jul-19 13:32N 50°50' E 000°60'11 9.5
2014-Jul-19 12:26N 50°57' E 001°13'1010.9
2014-Jul-19 11:33N 51°03' E 001°25'1110.8
2014-Jul-19 10:33N 51°10' E 001°37'9 9.0
2014-Jul-19 09:33N 51°16' E 001°47'8 8.1
2014-Jul-19 08:33N 51°24' E 001°53'7 7.1
2014-Jul-19 07:34N 51°30' E 001°59'7 7.1
2014-Jul-19 06:34N 51°35' E 002°06'7 7.4
2014-Jul-19 05:33N 51°40' E 002°15'9 7.6
2014-Jul-19 04:25N 51°47' E 002°24'7 8.4
2014-Jul-19 03:33N 51°52' E 002°32'10 9.6
2014-Jul-19 02:33N 51°58' E 002°44'9 9.4
2014-Jul-19 01:33N 52°02' E 002°59'10 9.6
2014-Jul-19 00:33N 52°03' E 003°14'9 9.0
2014-Jul-18 23:32N 52°03' E 003°29'8 8.5
2014-Jul-18 22:32N 52°04' E 003°43'8 8.3
2014-Jul-18 21:34N 52°03' E 003°56'1010.0
2014-Jul-18 20:33N 51°57' E 004°10'10 9.5
2014-Jul-18 19:33N 51°54' E 004°24'1 0.7
2014-Jul-18 18:32N 51°54' E 004°25'0 0.0
2014-Jul-18 17:32N 51°54' E 004°25'0 0.0
2014-Jul-18 16:32N 51°54' E 004°25'0 0.0
2014-Jul-18 15:32N 51°54' E 004°25'0 0.0
2014-Jul-18 14:32N 51°54' E 004°25'0 0.0
2014-Jul-18 13:32N 51°54' E 004°25'0 0.0
2014-Jul-18 12:32N 51°54' E 004°25'0 0.0
2014-Jul-18 11:32N 51°54' E 004°25'0 0.0
2014-Jul-18 10:32N 51°54' E 004°25'0 0.0
2014-Jul-18 09:32N 51°54' E 004°25'0 0.0
2014-Jul-18 08:32N 51°54' E 004°25'  

Dump ship's entire track history